sensor_id;sensor_type;location;lat;lon;timestamp;noise_LAeq;noise_LA_min;noise_LA_max;noise_LA01;noise_LA95
47109;Laerm;32856;51.422;6.794;2024-02-23T00:00:45;54.59;44.39;72.04;;
47109;Laerm;32856;51.422;6.794;2024-02-23T00:03:12;60.38;46.45;80.59;;
47109;Laerm;32856;51.422;6.794;2024-02-23T00:05:40;55.65;44.83;74.84;;
47109;Laerm;32856;51.422;6.794;2024-02-23T00:08:07;57.43;44.11;73.85;;
47109;Laerm;32856;51.422;6.794;2024-02-23T00:10:35;51.60;45.17;66.26;;
47109;Laerm;32856;51.422;6.794;2024-02-23T00:13:04;47.16;43.68;53.02;;
47109;Laerm;32856;51.422;6.794;2024-02-23T00:15:31;55.54;44.19;72.10;;
47109;Laerm;32856;51.422;6.794;2024-02-23T00:17:58;46.19;41.75;61.95;;
47109;Laerm;32856;51.422;6.794;2024-02-23T00:20:26;55.51;43.34;81.49;;
47109;Laerm;32856;51.422;6.794;2024-02-23T00:22:53;56.43;42.16;75.22;;
47109;Laerm;32856;51.422;6.794;2024-02-23T00:25:21;51.07;44.94;68.49;;
47109;Laerm;32856;51.422;6.794;2024-02-23T00:27:49;49.79;43.44;73.04;;
47109;Laerm;32856;51.422;6.794;2024-02-23T00:30:18;50.28;43.99;68.26;;
47109;Laerm;32856;51.422;6.794;2024-02-23T00:32:45;50.92;43.63;68.39;;
47109;Laerm;32856;51.422;6.794;2024-02-23T00:35:13;48.54;43.99;61.32;;
47109;Laerm;32856;51.422;6.794;2024-02-23T00:37:41;47.77;42.90;56.54;;
47109;Laerm;32856;51.422;6.794;2024-02-23T00:40:08;57.82;44.15;78.08;;
47109;Laerm;32856;51.422;6.794;2024-02-23T00:42:36;48.42;43.58;63.47;;
47109;Laerm;32856;51.422;6.794;2024-02-23T00:45:04;48.63;43.54;56.09;;
47109;Laerm;32856;51.422;6.794;2024-02-23T00:47:33;48.90;43.19;55.75;;
47109;Laerm;32856;51.422;6.794;2024-02-23T00:50:01;49.07;44.19;59.68;;
47109;Laerm;32856;51.422;6.794;2024-02-23T00:52:29;53.19;44.51;68.31;;
47109;Laerm;32856;51.422;6.794;2024-02-23T00:54:56;50.65;42.03;73.46;;
47109;Laerm;32856;51.422;6.794;2024-02-23T00:57:23;50.47;44.69;69.34;;
47109;Laerm;32856;51.422;6.794;2024-02-23T00:59:55;51.99;45.27;70.16;;
47109;Laerm;32856;51.422;6.794;2024-02-23T01:02:23;54.91;42.76;73.44;;
47109;Laerm;32856;51.422;6.794;2024-02-23T01:04:52;47.92;44.03;51.19;;
47109;Laerm;32856;51.422;6.794;2024-02-23T01:07:22;48.53;42.82;63.08;;
47109;Laerm;32856;51.422;6.794;2024-02-23T01:09:50;55.61;44.69;73.09;;
47109;Laerm;32856;51.422;6.794;2024-02-23T01:12:17;50.39;45.23;65.84;;
47109;Laerm;32856;51.422;6.794;2024-02-23T01:14:45;47.89;43.72;59.49;;
47109;Laerm;32856;51.422;6.794;2024-02-23T01:17:14;48.18;43.58;57.10;;
47109;Laerm;32856;51.422;6.794;2024-02-23T01:22:11;50.05;43.04;67.03;;
47109;Laerm;32856;51.422;6.794;2024-02-23T01:24:38;48.79;43.54;62.71;;
47109;Laerm;32856;51.422;6.794;2024-02-23T01:27:06;55.48;43.77;73.75;;
47109;Laerm;32856;51.422;6.794;2024-02-23T01:29:34;48.73;41.82;75.15;;
47109;Laerm;32856;51.422;6.794;2024-02-23T01:32:02;49.99;46.05;53.95;;
47109;Laerm;32856;51.422;6.794;2024-02-23T01:34:29;48.24;44.43;53.35;;
47109;Laerm;32856;51.422;6.794;2024-02-23T01:36:56;48.41;43.90;57.77;;
47109;Laerm;32856;51.422;6.794;2024-02-23T01:39:25;48.97;43.54;56.47;;
47109;Laerm;32856;51.422;6.794;2024-02-23T01:41:52;49.36;44.87;54.90;;
47109;Laerm;32856;51.422;6.794;2024-02-23T01:44:21;51.18;45.60;67.75;;
47109;Laerm;32856;51.422;6.794;2024-02-23T01:46:48;50.45;42.98;57.67;;
47109;Laerm;32856;51.422;6.794;2024-02-23T01:49:17;50.48;45.14;57.47;;
47109;Laerm;32856;51.422;6.794;2024-02-23T01:51:44;48.82;42.82;58.33;;
47109;Laerm;32856;51.422;6.794;2024-02-23T01:54:12;59.76;45.63;78.77;;
47109;Laerm;32856;51.422;6.794;2024-02-23T01:56:41;54.36;45.14;72.32;;
47109;Laerm;32856;51.422;6.794;2024-02-23T01:59:09;55.34;44.43;71.23;;
47109;Laerm;32856;51.422;6.794;2024-02-23T02:01:37;48.77;44.58;54.26;;
47109;Laerm;32856;51.422;6.794;2024-02-23T02:04:05;49.05;44.11;57.91;;
47109;Laerm;32856;51.422;6.794;2024-02-23T02:06:32;50.67;46.59;55.60;;
47109;Laerm;32856;51.422;6.794;2024-02-23T02:09:00;55.05;44.39;63.49;;
47109;Laerm;32856;51.422;6.794;2024-02-23T02:11:27;50.20;45.80;57.76;;
47109;Laerm;32856;51.422;6.794;2024-02-23T02:13:56;50.01;45.34;62.16;;
47109;Laerm;32856;51.422;6.794;2024-02-23T02:16:23;49.39;44.54;66.38;;
47109;Laerm;32856;51.422;6.794;2024-02-23T02:18:50;59.78;47.57;80.84;;
47109;Laerm;32856;51.422;6.794;2024-02-23T02:21:18;50.49;43.94;68.10;;
47109;Laerm;32856;51.422;6.794;2024-02-23T02:23:49;49.37;44.11;62.44;;
47109;Laerm;32856;51.422;6.794;2024-02-23T02:26:17;51.35;46.82;60.58;;
47109;Laerm;32856;51.422;6.794;2024-02-23T02:28:45;56.13;47.36;74.12;;
47109;Laerm;32856;51.422;6.794;2024-02-23T02:31:14;61.09;49.28;80.78;;
47109;Laerm;32856;51.422;6.794;2024-02-23T02:33:41;52.99;44.35;67.47;;
47109;Laerm;32856;51.422;6.794;2024-02-23T02:36:09;58.31;46.52;77.14;;
47109;Laerm;32856;51.422;6.794;2024-02-23T02:38:37;53.67;45.77;69.93;;
47109;Laerm;32856;51.422;6.794;2024-02-23T02:41:05;52.89;47.59;68.50;;
47109;Laerm;32856;51.422;6.794;2024-02-23T02:43:32;57.89;47.10;78.89;;
47109;Laerm;32856;51.422;6.794;2024-02-23T02:46:00;50.65;46.40;65.73;;
47109;Laerm;32856;51.422;6.794;2024-02-23T02:48:28;55.53;47.10;71.89;;
47109;Laerm;32856;51.422;6.794;2024-02-23T02:50:56;53.27;45.14;72.68;;
47109;Laerm;32856;51.422;6.794;2024-02-23T02:53:23;53.00;45.69;61.46;;
47109;Laerm;32856;51.422;6.794;2024-02-23T02:55:51;55.86;46.82;72.25;;
47109;Laerm;32856;51.422;6.794;2024-02-23T02:58:18;52.72;46.62;71.38;;
47109;Laerm;32856;51.422;6.794;2024-02-23T03:00:45;56.65;47.50;72.90;;
47109;Laerm;32856;51.422;6.794;2024-02-23T03:03:13;52.01;45.69;66.53;;
47109;Laerm;32856;51.422;6.794;2024-02-23T03:05:42;51.66;46.30;59.44;;
47109;Laerm;32856;51.422;6.794;2024-02-23T03:08:09;53.65;47.61;57.46;;
47109;Laerm;32856;51.422;6.794;2024-02-23T03:10:37;51.61;46.45;56.63;;
47109;Laerm;32856;51.422;6.794;2024-02-23T03:13:04;61.46;48.10;76.47;;
47109;Laerm;32856;51.422;6.794;2024-02-23T03:15:32;60.66;48.05;76.78;;
47109;Laerm;32856;51.422;6.794;2024-02-23T03:17:59;52.84;48.78;61.78;;
47109;Laerm;32856;51.422;6.794;2024-02-23T03:20:27;51.56;46.62;56.95;;
47109;Laerm;32856;51.422;6.794;2024-02-23T03:22:56;51.22;47.52;55.98;;
47109;Laerm;32856;51.422;6.794;2024-02-23T03:25:23;51.65;47.72;55.46;;
47109;Laerm;32856;51.422;6.794;2024-02-23T03:27:51;51.44;47.30;55.07;;
47109;Laerm;32856;51.422;6.794;2024-02-23T03:30:18;56.18;47.88;72.11;;
47109;Laerm;32856;51.422;6.794;2024-02-23T03:32:45;59.11;48.28;73.92;;
47109;Laerm;32856;51.422;6.794;2024-02-23T03:35:13;53.42;47.86;59.82;;
47109;Laerm;32856;51.422;6.794;2024-02-23T03:37:40;58.57;48.60;76.24;;
47109;Laerm;32856;51.422;6.794;2024-02-23T03:40:09;51.76;47.55;55.98;;
47109;Laerm;32856;51.422;6.794;2024-02-23T03:42:37;59.06;49.44;74.45;;
47109;Laerm;32856;51.422;6.794;2024-02-23T03:45:05;62.31;51.15;76.76;;
47109;Laerm;32856;51.422;6.794;2024-02-23T03:47:32;62.10;49.03;81.19;;
47109;Laerm;32856;51.422;6.794;2024-02-23T03:50:00;60.46;49.89;76.34;;
47109;Laerm;32856;51.422;6.794;2024-02-23T03:52:27;58.45;50.16;75.34;;
47109;Laerm;32856;51.422;6.794;2024-02-23T03:54:55;56.47;48.77;69.13;;
47109;Laerm;32856;51.422;6.794;2024-02-23T03:57:23;59.55;50.25;75.89;;
47109;Laerm;32856;51.422;6.794;2024-02-23T03:59:51;61.55;49.47;76.16;;
47109;Laerm;32856;51.422;6.794;2024-02-23T04:02:18;57.90;49.60;73.84;;
47109;Laerm;32856;51.422;6.794;2024-02-23T04:04:47;62.41;51.77;74.90;;
47109;Laerm;32856;51.422;6.794;2024-02-23T04:07:14;62.54;52.19;79.39;;
47109;Laerm;32856;51.422;6.794;2024-02-23T04:09:42;61.10;51.43;76.79;;
47109;Laerm;32856;51.422;6.794;2024-02-23T04:12:10;59.71;49.93;75.71;;
47109;Laerm;32856;51.422;6.794;2024-02-23T04:14:38;62.40;51.95;77.06;;
47109;Laerm;32856;51.422;6.794;2024-02-23T04:17:06;61.29;47.48;76.83;;
47109;Laerm;32856;51.422;6.794;2024-02-23T04:19:34;61.56;52.89;77.66;;
47109;Laerm;32856;51.422;6.794;2024-02-23T04:22:02;59.79;51.57;73.71;;
47109;Laerm;32856;51.422;6.794;2024-02-23T04:24:29;57.69;50.83;72.06;;
47109;Laerm;32856;51.422;6.794;2024-02-23T04:26:57;59.62;52.09;74.38;;
47109;Laerm;32856;51.422;6.794;2024-02-23T04:29:24;63.14;51.81;76.38;;
47109;Laerm;32856;51.422;6.794;2024-02-23T04:31:53;61.62;52.18;76.42;;
47109;Laerm;32856;51.422;6.794;2024-02-23T04:34:20;60.99;52.51;76.71;;
47109;Laerm;32856;51.422;6.794;2024-02-23T04:36:48;59.06;52.33;75.84;;
47109;Laerm;32856;51.422;6.794;2024-02-23T04:39:15;62.63;52.63;77.28;;
47109;Laerm;32856;51.422;6.794;2024-02-23T04:41:42;61.78;52.72;74.72;;
47109;Laerm;32856;51.422;6.794;2024-02-23T04:44:10;60.69;52.18;75.29;;
47109;Laerm;32856;51.422;6.794;2024-02-23T04:46:37;64.64;53.65;77.21;;
47109;Laerm;32856;51.422;6.794;2024-02-23T04:49:06;64.67;53.46;82.89;;
47109;Laerm;32856;51.422;6.794;2024-02-23T04:51:33;63.68;52.94;78.40;;
47109;Laerm;32856;51.422;6.794;2024-02-23T04:54:01;62.08;52.46;75.58;;
47109;Laerm;32856;51.422;6.794;2024-02-23T04:56:29;62.10;52.84;73.87;;
47109;Laerm;32856;51.422;6.794;2024-02-23T04:58:56;63.64;52.64;77.31;;
47109;Laerm;32856;51.422;6.794;2024-02-23T05:01:23;61.65;52.81;74.47;;
47109;Laerm;32856;51.422;6.794;2024-02-23T05:03:51;61.09;53.59;74.32;;
47109;Laerm;32856;51.422;6.794;2024-02-23T05:06:19;61.93;54.06;75.34;;
47109;Laerm;32856;51.422;6.794;2024-02-23T05:08:47;60.98;53.17;74.69;;
47109;Laerm;32856;51.422;6.794;2024-02-23T05:11:14;62.08;54.27;79.29;;
47109;Laerm;32856;51.422;6.794;2024-02-23T05:13:42;64.88;54.91;77.72;;
47109;Laerm;32856;51.422;6.794;2024-02-23T05:16:09;63.00;53.76;78.85;;
47109;Laerm;32856;51.422;6.794;2024-02-23T05:18:39;64.66;54.47;78.89;;
47109;Laerm;32856;51.422;6.794;2024-02-23T05:21:06;61.92;54.25;76.35;;
47109;Laerm;32856;51.422;6.794;2024-02-23T05:23:35;63.18;54.56;77.01;;
47109;Laerm;32856;51.422;6.794;2024-02-23T05:26:03;63.32;54.70;78.77;;
47109;Laerm;32856;51.422;6.794;2024-02-23T05:28:33;63.66;55.64;74.89;;
47109;Laerm;32856;51.422;6.794;2024-02-23T05:31:01;64.45;54.42;75.58;;
47109;Laerm;32856;51.422;6.794;2024-02-23T05:33:29;65.26;54.83;77.94;;
47109;Laerm;32856;51.422;6.794;2024-02-23T05:35:57;64.75;54.00;77.49;;
47109;Laerm;32856;51.422;6.794;2024-02-23T05:38:24;65.62;54.28;80.60;;
47109;Laerm;32856;51.422;6.794;2024-02-23T05:40:53;60.78;54.49;72.76;;
47109;Laerm;32856;51.422;6.794;2024-02-23T05:43:20;64.95;53.65;75.76;;
47109;Laerm;32856;51.422;6.794;2024-02-23T05:45:48;66.19;56.58;79.17;;
47109;Laerm;32856;51.422;6.794;2024-02-23T05:48:15;63.35;53.34;76.08;;
47109;Laerm;32856;51.422;6.794;2024-02-23T05:50:45;65.08;54.26;77.72;;
47109;Laerm;32856;51.422;6.794;2024-02-23T05:53:12;66.58;55.16;79.19;;
47109;Laerm;32856;51.422;6.794;2024-02-23T05:55:40;63.27;55.52;75.68;;
47109;Laerm;32856;51.422;6.794;2024-02-23T05:58:09;66.21;53.86;81.82;;
47109;Laerm;32856;51.422;6.794;2024-02-23T06:00:36;64.70;54.74;76.14;;
47109;Laerm;32856;51.422;6.794;2024-02-23T06:03:03;66.46;54.63;82.94;;
47109;Laerm;32856;51.422;6.794;2024-02-23T06:05:31;63.65;54.61;74.89;;
47109;Laerm;32856;51.422;6.794;2024-02-23T06:07:58;63.87;54.83;75.02;;
47109;Laerm;32856;51.422;6.794;2024-02-23T06:10:26;62.20;54.92;74.60;;
47109;Laerm;32856;51.422;6.794;2024-02-23T06:12:53;66.62;55.65;78.65;;
47109;Laerm;32856;51.422;6.794;2024-02-23T06:15:24;64.82;54.18;76.24;;
47109;Laerm;32856;51.422;6.794;2024-02-23T06:17:51;64.10;55.33;75.59;;
47109;Laerm;32856;51.422;6.794;2024-02-23T06:20:18;66.64;55.18;78.40;;
47109;Laerm;32856;51.422;6.794;2024-02-23T06:22:46;65.52;54.46;81.08;;
47109;Laerm;32856;51.422;6.794;2024-02-23T06:25:14;66.36;55.29;76.42;;
47109;Laerm;32856;51.422;6.794;2024-02-23T06:27:41;65.69;54.20;76.10;;
47109;Laerm;32856;51.422;6.794;2024-02-23T06:30:09;66.42;52.28;77.63;;
47109;Laerm;32856;51.422;6.794;2024-02-23T06:32:38;66.41;55.21;76.60;;
47109;Laerm;32856;51.422;6.794;2024-02-23T06:35:06;67.63;55.77;78.65;;
47109;Laerm;32856;51.422;6.794;2024-02-23T06:37:33;66.28;53.68;78.36;;
47109;Laerm;32856;51.422;6.794;2024-02-23T06:40:01;66.74;54.79;76.38;;
47109;Laerm;32856;51.422;6.794;2024-02-23T06:42:28;66.86;53.84;77.93;;
47109;Laerm;32856;51.422;6.794;2024-02-23T06:44:56;67.03;54.96;76.74;;
47109;Laerm;32856;51.422;6.794;2024-02-23T06:47:23;66.36;54.10;77.11;;
47109;Laerm;32856;51.422;6.794;2024-02-23T06:49:52;66.74;53.85;75.95;;
47109;Laerm;32856;51.422;6.794;2024-02-23T06:52:20;66.32;53.58;78.02;;
47109;Laerm;32856;51.422;6.794;2024-02-23T06:54:47;68.20;55.20;82.13;;
47109;Laerm;32856;51.422;6.794;2024-02-23T06:57:14;64.75;54.61;76.26;;
47109;Laerm;32856;51.422;6.794;2024-02-23T06:59:42;67.37;54.81;77.63;;
47109;Laerm;32856;51.422;6.794;2024-02-23T07:02:09;68.27;54.74;82.16;;
47109;Laerm;32856;51.422;6.794;2024-02-23T07:04:37;67.13;53.78;78.54;;
47109;Laerm;32856;51.422;6.794;2024-02-23T07:07:06;67.62;54.64;78.78;;
47109;Laerm;32856;51.422;6.794;2024-02-23T07:09:34;68.48;54.38;81.08;;
47109;Laerm;32856;51.422;6.794;2024-02-23T07:12:02;65.98;55.35;76.46;;
47109;Laerm;32856;51.422;6.794;2024-02-23T07:14:30;64.91;55.74;76.98;;
47109;Laerm;32856;51.422;6.794;2024-02-23T07:16:57;65.76;55.20;85.26;;
47109;Laerm;32856;51.422;6.794;2024-02-23T07:19:24;66.46;55.62;81.48;;
47109;Laerm;32856;51.422;6.794;2024-02-23T07:21:52;65.77;54.02;75.27;;
47109;Laerm;32856;51.422;6.794;2024-02-23T07:24:21;66.62;52.88;78.53;;
47109;Laerm;32856;51.422;6.794;2024-02-23T07:26:48;67.28;55.46;76.41;;
47109;Laerm;32856;51.422;6.794;2024-02-23T07:29:15;65.87;53.97;75.65;;
47109;Laerm;32856;51.422;6.794;2024-02-23T07:31:44;64.87;53.92;81.80;;
47109;Laerm;32856;51.422;6.794;2024-02-23T07:34:11;72.36;56.16;85.45;;
47109;Laerm;32856;51.422;6.794;2024-02-23T07:36:39;65.66;55.13;75.14;;
47109;Laerm;32856;51.422;6.794;2024-02-23T07:39:06;72.76;54.64;85.32;;
47109;Laerm;32856;51.422;6.794;2024-02-23T07:41:35;69.24;55.03;85.69;;
47109;Laerm;32856;51.422;6.794;2024-02-23T07:44:02;66.92;55.76;81.39;;
47109;Laerm;32856;51.422;6.794;2024-02-23T07:46:30;66.17;55.82;79.32;;
47109;Laerm;32856;51.422;6.794;2024-02-23T07:48:57;63.02;54.40;74.64;;
47109;Laerm;32856;51.422;6.794;2024-02-23T07:51:24;66.69;53.00;77.17;;
47109;Laerm;32856;51.422;6.794;2024-02-23T07:53:52;65.89;56.55;78.50;;
47109;Laerm;32856;51.422;6.794;2024-02-23T07:56:19;66.19;54.71;77.08;;
47109;Laerm;32856;51.422;6.794;2024-02-23T07:58:48;66.35;55.21;75.91;;
47109;Laerm;32856;51.422;6.794;2024-02-23T08:01:15;63.33;54.65;75.13;;
47109;Laerm;32856;51.422;6.794;2024-02-23T08:03:43;66.90;54.91;80.19;;
47109;Laerm;32856;51.422;6.794;2024-02-23T08:06:10;65.45;54.64;81.33;;
47109;Laerm;32856;51.422;6.794;2024-02-23T08:08:39;65.71;53.44;77.70;;
47109;Laerm;32856;51.422;6.794;2024-02-23T08:11:06;65.65;54.52;78.02;;
47109;Laerm;32856;51.422;6.794;2024-02-23T08:13:34;62.86;55.03;73.31;;
47109;Laerm;32856;51.422;6.794;2024-02-23T08:16:02;66.39;55.10;81.73;;
47109;Laerm;32856;51.422;6.794;2024-02-23T08:18:30;67.68;54.27;82.38;;
47109;Laerm;32856;51.422;6.794;2024-02-23T08:20:57;67.82;58.83;80.24;;
47109;Laerm;32856;51.422;6.794;2024-02-23T08:23:26;67.23;54.85;80.61;;
47109;Laerm;32856;51.422;6.794;2024-02-23T08:25:54;71.16;60.87;81.35;;
47109;Laerm;32856;51.422;6.794;2024-02-23T08:28:22;63.97;55.39;78.77;;
47109;Laerm;32856;51.422;6.794;2024-02-23T08:30:50;65.22;55.81;75.82;;
47109;Laerm;32856;51.422;6.794;2024-02-23T08:33:18;68.03;54.04;76.86;;
47109;Laerm;32856;51.422;6.794;2024-02-23T08:35:46;65.61;54.80;77.62;;
47109;Laerm;32856;51.422;6.794;2024-02-23T08:38:14;64.97;55.85;76.62;;
47109;Laerm;32856;51.422;6.794;2024-02-23T08:40:41;63.47;52.92;78.07;;
47109;Laerm;32856;51.422;6.794;2024-02-23T08:43:09;65.79;54.73;82.60;;
47109;Laerm;32856;51.422;6.794;2024-02-23T08:45:36;66.86;55.46;79.69;;
47109;Laerm;32856;51.422;6.794;2024-02-23T08:48:04;65.13;53.85;81.11;;
47109;Laerm;32856;51.422;6.794;2024-02-23T08:50:34;64.98;55.86;77.57;;
47109;Laerm;32856;51.422;6.794;2024-02-23T08:53:01;64.62;54.33;76.33;;
47109;Laerm;32856;51.422;6.794;2024-02-23T08:55:29;66.10;54.19;78.85;;
47109;Laerm;32856;51.422;6.794;2024-02-23T08:57:57;64.41;54.33;81.76;;
47109;Laerm;32856;51.422;6.794;2024-02-23T09:00:25;67.19;55.43;79.92;;
47109;Laerm;32856;51.422;6.794;2024-02-23T09:02:52;65.54;54.67;77.95;;
47109;Laerm;32856;51.422;6.794;2024-02-23T09:05:19;64.93;54.86;76.26;;
47109;Laerm;32856;51.422;6.794;2024-02-23T09:07:49;65.03;53.25;80.15;;
47109;Laerm;32856;51.422;6.794;2024-02-23T09:10:16;70.03;55.20;88.00;;
47109;Laerm;32856;51.422;6.794;2024-02-23T09:12:44;63.60;54.83;74.94;;
47109;Laerm;32856;51.422;6.794;2024-02-23T09:15:11;62.78;54.14;75.04;;
47109;Laerm;32856;51.422;6.794;2024-02-23T09:17:39;65.29;53.33;77.20;;
47109;Laerm;32856;51.422;6.794;2024-02-23T09:20:07;66.69;54.48;87.71;;
47109;Laerm;32856;51.422;6.794;2024-02-23T09:22:35;66.91;55.37;78.12;;
47109;Laerm;32856;51.422;6.794;2024-02-23T09:25:04;64.73;53.62;80.05;;
47109;Laerm;32856;51.422;6.794;2024-02-23T09:27:32;65.88;54.75;85.27;;
47109;Laerm;32856;51.422;6.794;2024-02-23T09:30:02;65.94;56.66;79.21;;
47109;Laerm;32856;51.422;6.794;2024-02-23T09:32:30;65.17;54.28;75.41;;
47109;Laerm;32856;51.422;6.794;2024-02-23T09:34:57;65.83;54.38;82.37;;
47109;Laerm;32856;51.422;6.794;2024-02-23T09:37:25;64.24;54.94;76.89;;
47109;Laerm;32856;51.422;6.794;2024-02-23T09:39:52;65.52;55.67;77.20;;
47109;Laerm;32856;51.422;6.794;2024-02-23T09:42:21;63.89;54.25;77.97;;
47109;Laerm;32856;51.422;6.794;2024-02-23T09:44:51;65.55;55.05;80.34;;
47109;Laerm;32856;51.422;6.794;2024-02-23T09:47:22;66.85;53.25;82.27;;
47109;Laerm;32856;51.422;6.794;2024-02-23T09:49:50;65.72;51.85;77.36;;
47109;Laerm;32856;51.422;6.794;2024-02-23T09:52:18;63.03;52.91;74.23;;
47109;Laerm;32856;51.422;6.794;2024-02-23T09:54:46;67.74;54.93;81.35;;
47109;Laerm;32856;51.422;6.794;2024-02-23T09:57:14;64.54;53.65;77.00;;
47109;Laerm;32856;51.422;6.794;2024-02-23T09:59:43;65.57;54.41;78.74;;
47109;Laerm;32856;51.422;6.794;2024-02-23T10:02:14;65.44;53.97;77.51;;
47109;Laerm;32856;51.422;6.794;2024-02-23T10:04:42;65.11;54.64;76.32;;
47109;Laerm;32856;51.422;6.794;2024-02-23T10:07:12;65.15;54.98;78.15;;
47109;Laerm;32856;51.422;6.794;2024-02-23T10:09:41;65.44;54.14;78.66;;
47109;Laerm;32856;51.422;6.794;2024-02-23T10:12:08;64.77;51.59;76.20;;
47109;Laerm;32856;51.422;6.794;2024-02-23T10:14:36;64.96;54.51;80.05;;
47109;Laerm;32856;51.422;6.794;2024-02-23T10:17:07;67.15;57.03;78.15;;
47109;Laerm;32856;51.422;6.794;2024-02-23T10:19:35;66.88;54.47;80.64;;
47109;Laerm;32856;51.422;6.794;2024-02-23T10:22:02;67.28;53.99;79.74;;
47109;Laerm;32856;51.422;6.794;2024-02-23T10:24:30;65.01;54.95;77.81;;
47109;Laerm;32856;51.422;6.794;2024-02-23T10:26:57;65.70;54.16;87.62;;
47109;Laerm;32856;51.422;6.794;2024-02-23T10:29:25;66.40;56.28;77.03;;
47109;Laerm;32856;51.422;6.794;2024-02-23T10:31:53;66.53;53.89;90.00;;
47109;Laerm;32856;51.422;6.794;2024-02-23T10:34:25;64.52;53.92;74.39;;
47109;Laerm;32856;51.422;6.794;2024-02-23T10:36:54;67.35;53.75;80.38;;
47109;Laerm;32856;51.422;6.794;2024-02-23T10:39:22;65.05;54.73;76.15;;
47109;Laerm;32856;51.422;6.794;2024-02-23T10:41:53;64.23;53.88;76.51;;
47109;Laerm;32856;51.422;6.794;2024-02-23T10:44:23;65.45;51.17;80.35;;
47109;Laerm;32856;51.422;6.794;2024-02-23T10:46:51;67.13;52.40;81.71;;
47109;Laerm;32856;51.422;6.794;2024-02-23T10:49:19;65.49;53.66;78.05;;
47109;Laerm;32856;51.422;6.794;2024-02-23T10:51:50;66.24;53.12;77.95;;
47109;Laerm;32856;51.422;6.794;2024-02-23T10:54:18;68.92;53.40;85.64;;
47109;Laerm;32856;51.422;6.794;2024-02-23T10:56:48;64.99;53.27;75.71;;
47109;Laerm;32856;51.422;6.794;2024-02-23T10:59:16;63.66;54.02;75.94;;
47109;Laerm;32856;51.422;6.794;2024-02-23T11:01:45;64.68;53.92;78.75;;
47109;Laerm;32856;51.422;6.794;2024-02-23T11:04:14;65.30;52.92;81.30;;
47109;Laerm;32856;51.422;6.794;2024-02-23T11:06:42;68.51;53.95;81.74;;
47109;Laerm;32856;51.422;6.794;2024-02-23T11:09:12;66.87;53.54;78.56;;
47109;Laerm;32856;51.422;6.794;2024-02-23T11:11:39;66.33;53.51;79.81;;
47109;Laerm;32856;51.422;6.794;2024-02-23T11:14:17;63.58;52.39;80.40;;
47109;Laerm;32856;51.422;6.794;2024-02-23T11:16:45;64.80;52.64;75.12;;
47109;Laerm;32856;51.422;6.794;2024-02-23T11:19:18;64.94;53.25;82.99;;
47109;Laerm;32856;51.422;6.794;2024-02-23T11:21:51;66.52;54.38;84.58;;
47109;Laerm;32856;51.422;6.794;2024-02-23T11:24:25;65.22;54.23;79.21;;
47109;Laerm;32856;51.422;6.794;2024-02-23T11:26:55;64.42;54.61;76.80;;
47109;Laerm;32856;51.422;6.794;2024-02-23T11:29:25;66.74;53.74;76.76;;
47109;Laerm;32856;51.422;6.794;2024-02-23T11:31:53;67.52;54.23;79.15;;
47109;Laerm;32856;51.422;6.794;2024-02-23T11:34:22;66.42;54.33;78.28;;
47109;Laerm;32856;51.422;6.794;2024-02-23T11:36:51;64.91;53.87;74.90;;
47109;Laerm;32856;51.422;6.794;2024-02-23T11:39:19;67.57;54.96;82.38;;
47109;Laerm;32856;51.422;6.794;2024-02-23T11:41:49;67.36;53.97;83.37;;
47109;Laerm;32856;51.422;6.794;2024-02-23T11:44:16;67.95;53.44;83.82;;
47109;Laerm;32856;51.422;6.794;2024-02-23T11:46:44;65.39;54.36;76.68;;
47109;Laerm;32856;51.422;6.794;2024-02-23T11:49:12;66.74;53.85;82.22;;
47109;Laerm;32856;51.422;6.794;2024-02-23T11:51:39;64.45;54.56;77.98;;
47109;Laerm;32856;51.422;6.794;2024-02-23T11:54:07;67.84;54.15;78.39;;
47109;Laerm;32856;51.422;6.794;2024-02-23T11:56:34;66.55;53.06;76.01;;
47109;Laerm;32856;51.422;6.794;2024-02-23T11:59:03;67.80;53.88;86.73;;
47109;Laerm;32856;51.422;6.794;2024-02-23T12:01:32;68.49;55.12;86.74;;
47109;Laerm;32856;51.422;6.794;2024-02-23T12:03:59;67.80;53.12;81.81;;
47109;Laerm;32856;51.422;6.794;2024-02-23T12:06:27;65.95;52.85;76.53;;
47109;Laerm;32856;51.422;6.794;2024-02-23T12:08:58;66.66;54.08;78.55;;
47109;Laerm;32856;51.422;6.794;2024-02-23T12:11:26;65.44;53.13;77.43;;
47109;Laerm;32856;51.422;6.794;2024-02-23T12:13:55;67.74;52.36;80.16;;
47109;Laerm;32856;51.422;6.794;2024-02-23T12:16:27;67.24;52.48;78.34;;
47109;Laerm;32856;51.422;6.794;2024-02-23T12:18:54;66.45;55.16;77.47;;
47109;Laerm;32856;51.422;6.794;2024-02-23T12:21:22;66.65;53.03;79.40;;
47109;Laerm;32856;51.422;6.794;2024-02-23T12:23:50;68.99;53.14;82.77;;
47109;Laerm;32856;51.422;6.794;2024-02-23T12:26:18;65.66;52.34;75.58;;
47109;Laerm;32856;51.422;6.794;2024-02-23T12:28:46;65.09;52.76;76.26;;
47109;Laerm;32856;51.422;6.794;2024-02-23T12:31:14;64.88;52.65;76.39;;
47109;Laerm;32856;51.422;6.794;2024-02-23T12:33:43;65.44;53.27;75.53;;
47109;Laerm;32856;51.422;6.794;2024-02-23T12:36:14;65.33;53.12;79.20;;
47109;Laerm;32856;51.422;6.794;2024-02-23T12:38:42;67.98;52.97;83.53;;
47109;Laerm;32856;51.422;6.794;2024-02-23T12:41:09;66.19;54.09;76.40;;
47109;Laerm;32856;51.422;6.794;2024-02-23T12:43:38;67.66;55.26;78.11;;
47109;Laerm;32856;51.422;6.794;2024-02-23T12:46:06;68.26;54.20;81.82;;
47109;Laerm;32856;51.422;6.794;2024-02-23T12:48:34;64.91;52.75;74.84;;
47109;Laerm;32856;51.422;6.794;2024-02-23T12:51:04;69.74;55.57;85.30;;
47109;Laerm;32856;51.422;6.794;2024-02-23T12:53:32;66.69;53.81;77.63;;
47109;Laerm;32856;51.422;6.794;2024-02-23T12:56:01;66.98;54.29;78.63;;
47109;Laerm;32856;51.422;6.794;2024-02-23T12:58:29;66.43;54.00;76.52;;
47109;Laerm;32856;51.422;6.794;2024-02-23T13:00:56;68.37;53.55;78.90;;
47109;Laerm;32856;51.422;6.794;2024-02-23T13:03:24;65.78;53.69;77.57;;
47109;Laerm;32856;51.422;6.794;2024-02-23T13:05:53;67.68;53.00;80.03;;
47109;Laerm;32856;51.422;6.794;2024-02-23T13:08:22;69.14;50.79;88.24;;
47109;Laerm;32856;51.422;6.794;2024-02-23T13:10:49;68.23;53.67;84.82;;
47109;Laerm;32856;51.422;6.794;2024-02-23T13:13:17;66.29;55.73;74.82;;
47109;Laerm;32856;51.422;6.794;2024-02-23T13:15:44;67.67;54.34;80.78;;
47109;Laerm;32856;51.422;6.794;2024-02-23T13:18:12;67.29;53.87;77.22;;
47109;Laerm;32856;51.422;6.794;2024-02-23T13:20:39;65.52;53.42;76.35;;
47109;Laerm;32856;51.422;6.794;2024-02-23T13:23:07;68.79;53.50;79.47;;
47109;Laerm;32856;51.422;6.794;2024-02-23T13:25:37;65.38;54.16;77.03;;
47109;Laerm;32856;51.422;6.794;2024-02-23T13:28:04;66.06;52.31;78.69;;
47109;Laerm;32856;51.422;6.794;2024-02-23T13:30:32;68.22;55.62;79.36;;
47109;Laerm;32856;51.422;6.794;2024-02-23T13:33:00;66.04;53.97;76.26;;
47109;Laerm;32856;51.422;6.794;2024-02-23T13:35:27;68.41;55.82;83.84;;
47109;Laerm;32856;51.422;6.794;2024-02-23T13:37:55;68.57;53.17;79.25;;
47109;Laerm;32856;51.422;6.794;2024-02-23T13:40:23;67.93;52.05;78.17;;
47109;Laerm;32856;51.422;6.794;2024-02-23T13:42:52;68.47;50.86;82.91;;
47109;Laerm;32856;51.422;6.794;2024-02-23T13:45:20;67.63;53.81;78.08;;
47109;Laerm;32856;51.422;6.794;2024-02-23T13:47:55;69.25;57.29;78.36;;
47109;Laerm;32856;51.422;6.794;2024-02-23T13:50:22;68.05;54.25;77.89;;